createdAt,value
2018-06-30T00:02:00.432Z,98645.22
2018-06-30T00:04:30.177Z,98644.09
2018-06-30T00:06:59.565Z,98634.17
2018-06-30T00:09:28.965Z,98631.37
2018-06-30T00:11:58.323Z,98630.85
2018-06-30T00:14:28.039Z,98627.97
2018-06-30T00:16:57.921Z,98632.53
2018-06-30T00:19:27.475Z,98627.70
2018-06-30T00:21:56.875Z,98625.09
2018-06-30T00:24:26.543Z,98623.69
2018-06-30T00:27:01.193Z,98627.87
2018-06-30T00:29:30.943Z,98637.36
2018-06-30T00:32:00.343Z,98629.00
2018-06-30T00:34:30.101Z,98630.88
2018-06-30T00:36:59.605Z,98633.21
2018-06-30T00:39:29.860Z,98625.33
2018-06-30T00:41:59.232Z,98632.31
2018-06-30T00:44:29.651Z,98628.44
2018-06-30T00:46:59.237Z,98624.87
2018-06-30T00:49:28.875Z,98622.20
2018-06-30T00:51:58.917Z,98621.34
2018-06-30T00:54:28.507Z,98610.95
2018-06-30T00:56:57.976Z,98608.48
2018-06-30T00:59:27.643Z,98615.67
2018-06-30T01:01:57.211Z,98615.59
2018-06-30T01:04:27.082Z,98602.09
2018-06-30T01:06:56.960Z,98605.38
2018-06-30T01:09:26.460Z,98606.03
2018-06-30T01:11:55.968Z,98607.98
2018-06-30T01:14:25.557Z,98608.08
2018-06-30T01:16:54.961Z,98604.20
2018-06-30T01:19:24.437Z,98614.20
2018-06-30T01:21:53.784Z,98608.22
2018-06-30T01:24:23.196Z,98612.36
2018-06-30T01:26:52.596Z,98476.41
2018-06-30T01:29:22.254Z,98601.90
2018-06-30T01:31:51.860Z,98600.16
2018-06-30T01:34:21.295Z,98606.62
2018-06-30T01:36:50.792Z,98605.14
2018-06-30T01:39:20.411Z,98607.95
2018-06-30T01:41:50.006Z,98600.66
2018-06-30T01:44:19.384Z,98604.67
2018-06-30T01:46:48.765Z,98605.02
2018-06-30T01:49:18.160Z,98605.61
2018-06-30T01:51:47.853Z,98610.26
2018-06-30T01:54:17.256Z,98613.51
2018-06-30T01:56:47.989Z,98612.07
2018-06-30T01:59:17.588Z,98607.47
2018-06-30T02:01:47.289Z,98612.47
2018-06-30T02:04:16.812Z,98605.45
2018-06-30T02:06:46.236Z,98610.28
2018-06-30T02:09:16.333Z,98615.41
2018-06-30T02:11:45.711Z,98615.06
2018-06-30T02:14:15.064Z,98612.44
2018-06-30T02:16:44.471Z,98618.64
2018-06-30T02:19:13.844Z,98611.32
2018-06-30T02:21:44.125Z,98616.61
2018-06-30T02:24:13.627Z,98620.96
2018-06-30T02:26:43.286Z,98618.98
2018-06-30T02:29:13.138Z,98620.67
2018-06-30T02:31:42.976Z,98621.09
2018-06-30T02:34:12.509Z,98620.88
2018-06-30T02:36:42.856Z,98621.02
2018-06-30T02:39:12.365Z,98619.46
2018-06-30T02:41:42.432Z,98613.30
2018-06-30T02:44:13.167Z,98612.95
2018-06-30T02:46:42.561Z,98611.62
2018-06-30T02:49:12.700Z,98615.83
2018-06-30T02:51:42.109Z,98621.44
2018-06-30T02:54:11.712Z,98614.42
2018-06-30T02:56:41.297Z,98619.89
2018-06-30T02:59:10.663Z,98613.69
2018-06-30T03:01:40.212Z,98617.73
2018-06-30T03:04:09.605Z,98619.41
2018-06-30T03:06:40.152Z,98613.43
2018-06-30T03:09:10.847Z,98616.53
2018-06-30T03:11:40.943Z,98612.17
2018-06-30T03:14:10.296Z,98614.50
2018-06-30T03:16:39.682Z,98616.18
2018-06-30T03:19:10.288Z,98616.53
2018-06-30T03:21:40.752Z,98614.89
2018-06-30T03:24:11.204Z,98610.62
2018-06-30T03:26:40.635Z,98614.28
2018-06-30T03:29:10.005Z,98609.80
2018-06-30T03:31:39.450Z,98610.78
2018-06-30T03:34:09.149Z,98613.92
2018-06-30T03:36:38.559Z,98610.38
2018-06-30T03:39:09.949Z,98616.80
2018-06-30T03:41:39.510Z,98618.04
2018-06-30T03:44:08.872Z,98612.86
2018-06-30T03:46:38.440Z,98615.88
2018-06-30T03:49:08.355Z,98616.11
2018-06-30T03:51:37.932Z,98619.24
2018-06-30T03:54:07.568Z,98616.56
2018-06-30T03:56:37.924Z,98627.81
2018-06-30T03:59:08.334Z,98631.00
2018-06-30T04:01:38.708Z,98623.76
2018-06-30T04:04:08.107Z,98628.11
2018-06-30T04:06:37.615Z,98629.80
2018-06-30T04:09:09.643Z,98625.23
2018-06-30T04:11:39.382Z,98628.81
2018-06-30T04:14:09.438Z,98629.15
2018-06-30T04:16:38.932Z,98623.19
2018-06-30T04:19:15.267Z,98623.46
2018-06-30T04:21:46.267Z,98636.13
2018-06-30T04:24:16.765Z,98631.78
2018-06-30T04:26:46.272Z,98637.55
2018-06-30T04:29:15.632Z,98633.23
2018-06-30T04:31:45.039Z,98633.04
2018-06-30T04:34:14.461Z,98628.86
2018-06-30T04:36:44.998Z,98631.48
2018-06-30T04:39:14.608Z,98629.09
2018-06-30T04:41:44.403Z,98643.70
2018-06-30T04:44:13.800Z,98632.31
2018-06-30T04:46:43.305Z,98634.64
2018-06-30T04:49:12.752Z,98633.52
2018-06-30T04:51:42.329Z,98638.63
2018-06-30T04:54:11.799Z,98639.06
2018-06-30T04:56:41.200Z,98639.89
2018-06-30T04:59:10.639Z,98520.39
2018-06-30T05:01:40.180Z,98642.71
2018-06-30T05:04:09.779Z,98639.39
2018-06-30T05:06:39.168Z,98642.34
2018-06-30T05:09:09.233Z,98650.57
2018-06-30T05:11:38.614Z,98649.73
2018-06-30T05:14:09.998Z,98646.80
2018-06-30T05:16:39.708Z,98643.67
2018-06-30T05:19:09.370Z,98656.74
2018-06-30T05:21:39.621Z,98658.25
2018-06-30T05:24:09.267Z,98655.20
2018-06-30T05:26:38.619Z,98657.88
2018-06-30T05:29:08.274Z,98653.52
2018-06-30T05:31:37.676Z,98651.98
2018-06-30T05:34:07.690Z,98663.77
2018-06-30T05:36:37.137Z,98658.02
2018-06-30T05:39:08.548Z,98660.00
2018-06-30T05:41:38.640Z,98665.72
2018-06-30T05:44:08.100Z,98674.91
2018-06-30T05:46:37.722Z,98677.22
2018-06-30T05:49:07.391Z,98680.13
2018-06-30T05:51:37.415Z,98684.42
2018-06-30T05:54:07.417Z,98686.20
2018-06-30T05:56:37.117Z,98697.83
2018-06-30T05:59:07.166Z,98698.03
2018-06-30T06:01:36.946Z,98696.22
2018-06-30T06:04:07.024Z,98700.51
2018-06-30T06:06:36.718Z,98704.87
2018-06-30T06:09:08.800Z,98705.61
2018-06-30T06:11:38.521Z,98701.80
2018-06-30T06:14:08.944Z,98701.88
2018-06-30T06:16:38.606Z,98703.34
2018-06-30T06:19:08.705Z,98704.28
2018-06-30T06:21:38.339Z,98695.73
2018-06-30T06:24:08.009Z,98708.69
2018-06-30T06:26:37.409Z,98716.52
2018-06-30T06:29:07.614Z,98384.20
2018-06-30T06:31:37.067Z,98718.84
2018-06-30T06:34:06.831Z,98716.78
2018-06-30T06:36:36.992Z,98720.52
2018-06-30T06:39:08.995Z,98720.10
2018-06-30T06:41:38.518Z,98729.05
2018-06-30T06:44:08.189Z,98728.83
2018-06-30T06:46:37.855Z,98740.66
2018-06-30T06:49:07.836Z,98742.69
2018-06-30T06:51:38.195Z,98741.91
2018-06-30T06:54:07.579Z,98739.33
2018-06-30T06:56:37.164Z,98745.01
2018-06-30T06:59:07.065Z,98750.09
2018-06-30T07:01:36.731Z,98750.14
2018-06-30T07:04:06.503Z,98750.48
2018-06-30T07:06:35.934Z,98747.84
2018-06-30T07:09:09.419Z,98750.92
2018-06-30T07:11:40.270Z,98758.31
2018-06-30T07:14:11.080Z,98752.88
2018-06-30T07:16:40.525Z,98756.25
2018-06-30T07:19:09.899Z,98751.55
2018-06-30T07:21:39.736Z,98757.45
2018-06-30T07:24:09.332Z,98762.37
2018-06-30T07:26:38.760Z,98766.80
2018-06-30T07:29:08.551Z,98768.79
2018-06-30T07:31:37.924Z,98769.18
2018-06-30T07:34:07.343Z,98765.94
2018-06-30T07:36:37.161Z,98768.53
2018-06-30T07:39:08.915Z,98775.55
2018-06-30T07:41:39.536Z,98779.64
2018-06-30T07:44:09.339Z,98778.78
2018-06-30T07:46:38.893Z,98781.45
2018-06-30T07:49:09.372Z,98784.60
2018-06-30T07:51:39.024Z,98785.38
2018-06-30T07:54:08.676Z,98777.36
2018-06-30T07:56:38.340Z,98786.66
2018-06-30T07:59:08.431Z,98802.19
2018-06-30T08:01:37.792Z,98787.98
2018-06-30T08:04:07.130Z,98795.25
2018-06-30T08:06:37.430Z,98789.81
2018-06-30T08:09:08.871Z,98791.12
2018-06-30T08:11:38.834Z,98798.49
2018-06-30T08:14:08.259Z,98804.34
2018-06-30T08:16:37.837Z,98800.72
2018-06-30T08:19:07.324Z,98806.95
2018-06-30T08:21:36.784Z,98807.42
2018-06-30T08:24:06.222Z,98805.95
2018-06-30T08:26:35.693Z,98825.64
2018-06-30T08:29:05.132Z,98791.63
2018-06-30T08:31:36.043Z,98825.93
2018-06-30T08:34:05.740Z,98828.64
2018-06-30T08:36:35.243Z,98831.97
2018-06-30T08:39:08.039Z,98833.21
2018-06-30T08:41:37.399Z,98839.06
2018-06-30T08:44:07.389Z,98837.09
2018-06-30T08:46:36.972Z,98838.52
2018-06-30T08:49:06.425Z,98835.95
2018-06-30T08:51:36.347Z,98825.36
2018-06-30T08:54:05.743Z,98837.63
2018-06-30T08:56:35.298Z,98837.63
2018-06-30T08:59:04.664Z,98844.15
2018-06-30T09:01:34.258Z,98841.41
2018-06-30T09:04:03.720Z,98840.70
2018-06-30T09:06:34.069Z,98841.86
2018-06-30T09:09:04.296Z,98846.31
2018-06-30T09:11:33.666Z,98852.45
2018-06-30T09:14:03.212Z,98845.08
2018-06-30T09:16:32.787Z,98848.57
2018-06-30T09:19:03.009Z,98858.08
2018-06-30T09:21:32.923Z,98857.92
2018-06-30T09:24:02.364Z,98854.80
2018-06-30T09:26:32.323Z,98861.01
2018-06-30T09:29:02.049Z,98858.81
2018-06-30T09:31:31.656Z,98861.77
2018-06-30T09:34:01.013Z,98859.70
2018-06-30T09:36:30.420Z,98865.23
2018-06-30T09:38:59.944Z,98859.83
2018-06-30T09:41:29.469Z,98862.56
2018-06-30T09:43:58.834Z,98866.47
2018-06-30T09:46:28.412Z,98870.61
2018-06-30T09:48:58.028Z,98868.20
2018-06-30T09:51:27.764Z,98860.08
2018-06-30T09:53:57.162Z,98869.39
2018-06-30T09:56:26.764Z,98863.44
2018-06-30T09:58:56.444Z,98863.27
2018-06-30T10:01:26.068Z,98865.41
2018-06-30T10:03:55.646Z,98874.04
2018-06-30T10:06:25.170Z,98862.69
2018-06-30T10:08:54.599Z,98857.78
2018-06-30T10:11:24.004Z,98861.72
2018-06-30T10:13:53.669Z,98866.07
2018-06-30T10:16:23.103Z,98858.43
2018-06-30T10:18:52.996Z,98856.27
2018-06-30T10:21:22.424Z,98859.86
2018-06-30T10:23:51.846Z,98863.59
2018-06-30T10:26:21.225Z,98853.36
2018-06-30T10:28:50.616Z,98861.10
2018-06-30T10:31:19.999Z,98854.52
2018-06-30T10:33:49.633Z,98847.48
2018-06-30T10:36:19.316Z,98854.25
2018-06-30T10:38:48.727Z,98852.17
2018-06-30T10:41:18.141Z,98849.73
2018-06-30T10:43:47.576Z,98840.98
2018-06-30T10:46:17.623Z,98845.27
2018-06-30T10:48:47.085Z,98835.27
2018-06-30T10:51:16.507Z,98832.10
2018-06-30T10:53:45.856Z,98849.77
2018-06-30T10:56:15.578Z,98837.94
2018-06-30T10:58:45.777Z,98829.33
2018-06-30T11:01:15.107Z,98831.56
2018-06-30T11:03:44.725Z,98826.29
2018-06-30T11:06:14.624Z,98833.33
2018-06-30T11:08:44.252Z,98828.44
2018-06-30T11:11:13.659Z,98831.87
2018-06-30T11:13:43.076Z,98824.97
2018-06-30T11:16:12.568Z,98833.06
2018-06-30T11:18:42.085Z,98836.40
2018-06-30T11:21:11.664Z,98827.63
2018-06-30T11:23:41.301Z,98832.34
2018-06-30T11:26:10.806Z,98839.42
2018-06-30T11:28:40.293Z,98828.31
2018-06-30T11:31:09.716Z,98833.92
2018-06-30T11:33:39.113Z,98841.06
2018-06-30T11:36:08.613Z,98826.38
2018-06-30T11:38:38.581Z,98826.25
2018-06-30T11:41:09.044Z,98836.82
2018-06-30T11:43:38.747Z,98835.74
2018-06-30T11:46:08.525Z,98832.80
2018-06-30T11:48:37.924Z,98827.92
2018-06-30T11:51:09.049Z,98831.45
2018-06-30T11:53:38.443Z,98840.21
2018-06-30T11:56:07.799Z,98832.81
2018-06-30T11:58:37.327Z,98839.17
2018-06-30T12:01:07.767Z,98835.83
2018-06-30T12:03:37.370Z,98836.31
2018-06-30T12:06:07.074Z,98832.95
2018-06-30T12:08:36.479Z,98845.11
2018-06-30T12:11:05.976Z,98833.35
2018-06-30T12:13:35.588Z,98839.11
2018-06-30T12:16:05.377Z,98846.03
2018-06-30T12:18:35.104Z,98829.75
2018-06-30T12:21:04.739Z,98839.09
2018-06-30T12:23:34.091Z,98840.19
2018-06-30T12:26:03.733Z,98837.55
2018-06-30T12:28:33.424Z,98831.89
2018-06-30T12:31:03.015Z,98826.56
2018-06-30T12:33:32.449Z,98836.03
2018-06-30T12:36:01.870Z,98794.42
2018-06-30T12:38:31.638Z,98828.34
2018-06-30T12:41:01.033Z,98842.42
2018-06-30T12:43:30.765Z,98838.63
2018-06-30T12:46:00.172Z,98830.27
2018-06-30T12:48:29.791Z,98840.92
2018-06-30T12:50:59.184Z,98829.67
2018-06-30T12:53:28.944Z,98841.39
2018-06-30T12:55:58.380Z,98839.59
2018-06-30T12:58:27.782Z,98849.78
2018-06-30T13:00:57.235Z,98834.03
2018-06-30T13:03:26.970Z,98839.00
2018-06-30T13:05:56.704Z,98817.52
2018-06-30T13:08:26.372Z,98832.70
2018-06-30T13:10:55.956Z,98833.70
2018-06-30T13:13:25.889Z,98838.11
2018-06-30T13:15:56.039Z,98845.55
2018-06-30T13:18:25.736Z,98852.15
2018-06-30T13:20:55.304Z,98843.59
2018-06-30T13:23:24.676Z,98843.53
2018-06-30T13:25:54.341Z,98849.36
2018-06-30T13:28:23.995Z,98844.94
2018-06-30T13:30:54.072Z,98855.14
2018-06-30T13:33:23.422Z,98853.55
2018-06-30T13:35:52.824Z,98854.40
2018-06-30T13:38:22.563Z,98860.42
2018-06-30T13:40:51.989Z,98863.45
2018-06-30T13:43:21.615Z,98863.50
2018-06-30T13:45:51.499Z,98872.31
2018-06-30T13:48:21.000Z,98865.61
2018-06-30T13:50:50.612Z,98866.06
2018-06-30T13:53:20.681Z,98869.40
2018-06-30T13:55:50.047Z,98867.72
2018-06-30T13:58:19.412Z,98874.65
2018-06-30T14:00:50.087Z,98867.13
2018-06-30T14:03:19.609Z,98862.38
2018-06-30T14:05:49.168Z,98870.95
2018-06-30T14:08:18.540Z,98869.40
2018-06-30T14:10:48.432Z,98861.50
2018-06-30T14:13:18.376Z,98872.91
2018-06-30T14:15:47.908Z,98874.02
2018-06-30T14:18:17.834Z,98864.53
2018-06-30T14:20:47.660Z,98865.78
2018-06-30T14:23:17.560Z,98871.02
2018-06-30T14:25:46.994Z,98870.70
2018-06-30T14:28:16.590Z,98882.66
2018-06-30T14:30:46.209Z,98884.61
2018-06-30T14:33:15.791Z,98878.81
2018-06-30T14:35:45.436Z,98894.44
2018-06-30T14:38:15.034Z,98712.70
2018-06-30T14:40:44.610Z,98891.08
2018-06-30T14:43:14.521Z,98888.39
2018-06-30T14:45:44.166Z,98906.70
2018-06-30T14:48:13.869Z,98904.34
2018-06-30T14:50:43.357Z,98903.16
2018-06-30T14:53:12.726Z,98900.07
2018-06-30T14:55:42.362Z,98907.11
2018-06-30T14:58:11.728Z,98899.19
2018-06-30T15:00:42.048Z,98902.23
2018-06-30T15:03:11.777Z,98911.30
2018-06-30T15:05:41.636Z,98912.03
2018-06-30T15:08:11.580Z,98914.50
2018-06-30T15:10:41.227Z,98922.27
2018-06-30T15:13:10.813Z,98924.56
2018-06-30T15:15:40.680Z,98931.20
2018-06-30T15:18:10.044Z,98926.59
2018-06-30T15:20:39.523Z,98937.62
2018-06-30T15:23:09.228Z,98940.94
2018-06-30T15:25:38.812Z,98932.77
2018-06-30T15:28:08.444Z,98941.36
2018-06-30T15:30:38.034Z,98941.42
2018-06-30T15:33:07.674Z,98943.48
2018-06-30T15:35:37.401Z,98954.70
2018-06-30T15:38:06.854Z,98950.46
2018-06-30T15:40:36.776Z,98950.55
2018-06-30T15:43:06.188Z,98958.00
2018-06-30T15:45:35.947Z,98945.67
2018-06-30T15:48:05.872Z,98950.59
2018-06-30T15:50:36.132Z,98959.96
2018-06-30T15:53:05.683Z,98966.83
2018-06-30T15:55:35.075Z,98960.34
2018-06-30T15:58:04.507Z,98962.95
2018-06-30T16:00:34.004Z,98964.61
2018-06-30T16:03:03.791Z,98965.37
2018-06-30T16:05:33.241Z,98970.09
2018-06-30T16:08:02.693Z,98965.04
2018-06-30T16:10:32.189Z,98967.84
2018-06-30T16:13:01.916Z,98968.06
2018-06-30T16:15:31.856Z,98972.58
2018-06-30T16:18:01.536Z,98985.31
2018-06-30T16:20:30.930Z,98956.57
2018-06-30T16:23:00.418Z,98966.56
2018-06-30T16:25:30.295Z,98968.89
2018-06-30T16:27:59.662Z,98980.03
2018-06-30T16:30:29.605Z,98980.84
2018-06-30T16:32:59.006Z,98979.37
2018-06-30T16:35:28.958Z,98974.54
2018-06-30T16:37:59.236Z,98983.95
2018-06-30T16:40:28.888Z,98981.50
2018-06-30T16:42:58.564Z,98990.39
2018-06-30T16:45:28.284Z,98999.38
2018-06-30T16:47:57.693Z,98987.19
2018-06-30T16:50:27.660Z,98990.52
2018-06-30T16:52:57.256Z,98991.42
2018-06-30T16:55:26.666Z,98981.84
2018-06-30T16:57:56.024Z,98989.88
2018-06-30T17:00:25.461Z,98994.32
2018-06-30T17:02:55.346Z,98982.14
2018-06-30T17:05:24.773Z,98990.48
2018-06-30T17:07:55.096Z,98988.23
2018-06-30T17:10:24.479Z,99001.05
2018-06-30T17:12:53.968Z,98998.65
2018-06-30T17:15:23.356Z,98999.39
2018-06-30T17:17:52.768Z,99008.95
2018-06-30T17:20:22.228Z,99005.61
2018-06-30T17:22:51.703Z,99013.16
2018-06-30T17:25:21.120Z,99008.16
2018-06-30T17:28:21.427Z,99012.61
2018-06-30T17:30:51.196Z,99019.20
2018-06-30T17:33:20.544Z,99022.86
2018-06-30T17:35:51.328Z,99025.66
2018-06-30T17:38:21.199Z,99020.88
2018-06-30T17:40:50.775Z,99028.65
2018-06-30T17:43:20.172Z,99029.20
2018-06-30T17:45:49.545Z,99034.77
2018-06-30T17:48:19.374Z,99045.69
2018-06-30T17:50:52.273Z,99035.20
2018-06-30T17:53:21.980Z,99046.85
2018-06-30T17:55:51.887Z,99043.17
2018-06-30T17:58:21.863Z,99043.52
2018-06-30T18:00:51.247Z,99042.27
2018-06-30T18:03:21.680Z,99045.32
2018-06-30T18:05:51.071Z,99036.65
2018-06-30T18:08:20.874Z,99049.45
2018-06-30T18:10:50.466Z,99052.76
2018-06-30T18:13:20.209Z,99055.37
2018-06-30T18:15:49.700Z,99058.91
2018-06-30T18:18:19.284Z,99043.47
2018-06-30T18:20:48.665Z,99056.70
2018-06-30T18:23:18.070Z,99058.56
2018-06-30T18:25:47.465Z,99049.97
2018-06-30T18:28:17.245Z,99061.63
2018-06-30T18:30:46.725Z,99059.12
2018-06-30T18:33:16.079Z,99066.28
2018-06-30T18:35:46.141Z,99069.11
2018-06-30T18:38:15.596Z,99066.60
2018-06-30T18:40:44.972Z,99065.74
2018-06-30T18:43:14.348Z,99068.41
2018-06-30T18:45:43.714Z,99070.65
2018-06-30T18:48:13.123Z,99074.80
2018-06-30T18:50:42.481Z,99082.33
2018-06-30T18:53:12.735Z,99082.45
2018-06-30T18:55:42.302Z,99089.14
2018-06-30T18:58:11.768Z,99089.61
2018-06-30T19:00:42.148Z,99089.13
2018-06-30T19:03:11.685Z,99097.59
2018-06-30T19:05:41.604Z,99105.12
2018-06-30T19:08:10.976Z,99104.16
2018-06-30T19:10:40.352Z,99101.24
2018-06-30T19:13:10.263Z,99115.20
2018-06-30T19:15:39.645Z,99115.53
2018-06-30T19:18:09.278Z,99116.37
2018-06-30T19:20:39.780Z,99112.64
2018-06-30T19:23:10.269Z,99121.37
2018-06-30T19:25:39.671Z,99122.80
2018-06-30T19:28:09.219Z,99129.81
2018-06-30T19:30:38.878Z,99131.63
2018-06-30T19:33:08.746Z,99141.33
2018-06-30T19:35:38.679Z,99136.95
2018-06-30T19:38:08.277Z,99141.55
2018-06-30T19:40:37.717Z,98914.62
2018-06-30T19:43:07.538Z,99144.22
2018-06-30T19:45:36.984Z,99146.03
2018-06-30T19:48:06.373Z,99149.27
2018-06-30T19:50:35.800Z,99150.46
2018-06-30T19:53:05.384Z,99158.09
2018-06-30T19:55:34.922Z,99162.92
2018-06-30T19:58:04.817Z,99161.20
2018-06-30T20:00:37.780Z,99157.17
2018-06-30T20:03:09.392Z,99158.60
2018-06-30T20:05:38.921Z,99160.15
2018-06-30T20:08:08.589Z,99158.09
2018-06-30T20:10:38.121Z,99164.00
2018-06-30T20:13:07.571Z,99172.09
2018-06-30T20:15:37.009Z,99169.06
2018-06-30T20:18:06.640Z,99176.55
2018-06-30T20:20:36.343Z,99177.11
2018-06-30T20:23:05.961Z,99178.33
2018-06-30T20:25:35.432Z,99185.92
2018-06-30T20:28:05.666Z,99189.30
2018-06-30T20:30:35.415Z,99196.30
2018-06-30T20:33:06.163Z,99193.84
2018-06-30T20:35:36.192Z,99189.02
2018-06-30T20:38:05.956Z,99194.92
2018-06-30T20:40:35.550Z,99193.72
2018-06-30T20:43:05.000Z,99196.23
2018-06-30T20:45:35.401Z,99201.87
2018-06-30T20:48:04.782Z,99201.34
2018-06-30T20:50:34.122Z,99211.37
2018-06-30T20:53:04.492Z,99206.15
2018-06-30T20:55:35.836Z,99213.25
2018-06-30T20:58:11.402Z,99208.02
2018-06-30T21:00:41.748Z,99215.44
2018-06-30T21:03:13.356Z,99218.02
2018-06-30T21:05:42.804Z,99216.84
2018-06-30T21:08:12.339Z,99223.87
2018-06-30T21:10:42.667Z,99228.03
2018-06-30T21:13:13.228Z,99228.20
2018-06-30T21:15:44.076Z,99221.72
2018-06-30T21:18:13.464Z,99219.12
2018-06-30T21:20:42.899Z,99228.86
2018-06-30T21:23:12.427Z,99228.88
2018-06-30T21:25:42.011Z,99230.53
2018-06-30T21:28:11.975Z,99226.45
2018-06-30T21:30:41.889Z,99223.94
2018-06-30T21:33:11.430Z,99232.30
2018-06-30T21:35:41.696Z,99232.55
2018-06-30T21:38:11.642Z,99227.55
2018-06-30T21:40:41.138Z,99230.48
2018-06-30T21:43:10.564Z,99231.33
2018-06-30T21:45:39.932Z,99243.20
2018-06-30T21:48:09.440Z,99243.25
2018-06-30T21:50:39.486Z,99233.09
2018-06-30T21:53:09.129Z,99246.52
2018-06-30T21:55:38.731Z,99238.50
2018-06-30T21:58:08.181Z,99241.16
2018-06-30T22:00:49.303Z,99234.30
2018-06-30T22:03:23.665Z,99237.36
2018-06-30T22:05:54.969Z,99243.14
2018-06-30T22:08:24.384Z,99242.97
2018-06-30T22:10:54.156Z,99244.52
2018-06-30T22:13:23.644Z,99242.27
2018-06-30T22:15:53.014Z,99242.77
2018-06-30T22:18:22.536Z,99240.39
2018-06-30T22:20:52.501Z,99246.84
2018-06-30T22:23:22.067Z,99239.00
2018-06-30T22:25:51.508Z,99244.41
2018-06-30T22:28:20.977Z,99248.23
2018-06-30T22:30:50.401Z,99204.91
2018-06-30T22:33:19.946Z,99241.50
2018-06-30T22:35:49.347Z,99249.96
2018-06-30T22:38:18.833Z,99248.36
2018-06-30T22:40:48.384Z,99251.56
2018-06-30T22:43:18.248Z,99247.02
2018-06-30T22:45:47.676Z,99246.92
2018-06-30T22:48:17.523Z,99248.06
2018-06-30T22:50:47.426Z,99254.91
2018-06-30T22:53:17.372Z,99245.81
2018-06-30T22:55:46.780Z,99251.05
2018-06-30T22:58:16.930Z,99253.58
2018-06-30T23:00:46.379Z,99252.64
2018-06-30T23:03:15.752Z,99252.85
2018-06-30T23:05:45.138Z,99254.75
2018-06-30T23:08:14.536Z,99257.95
2018-06-30T23:10:43.968Z,99256.27
2018-06-30T23:13:14.051Z,99257.00
2018-06-30T23:15:44.232Z,99260.59
2018-06-30T23:18:14.240Z,99254.51
2018-06-30T23:20:43.964Z,99257.83
2018-06-30T23:23:13.574Z,99253.75
2018-06-30T23:25:43.165Z,99263.20
2018-06-30T23:28:12.544Z,99247.76
2018-06-30T23:30:42.079Z,99254.50
2018-06-30T23:33:12.121Z,99249.75
2018-06-30T23:35:41.608Z,99253.89
2018-06-30T23:38:11.263Z,99256.73
2018-06-30T23:40:41.420Z,99248.42
2018-06-30T23:43:11.064Z,99247.34
2018-06-30T23:45:40.556Z,99245.15
2018-06-30T23:48:10.886Z,99243.16
2018-06-30T23:50:40.511Z,99250.44
2018-06-30T23:53:09.905Z,99252.67
2018-06-30T23:55:39.362Z,99251.33
2018-06-30T23:58:09.015Z,99248.85
